Time;durP1;ratioP1;P1;durP2;ratioP2;P2;SDS_P1;SDS_P2;PMS_P1;PMS_P2;Temp;Humidity;BMP_temperature;BMP_pressure;BME280_temperature;BME280_humidity;BME280_pressure;Samples;Min_cycle;Max_cycle;Signal;HPM_P1;HPM_P2
2023/01/18 00:00:46;;;;;;;3.17;2.17;;;20.90;28.60;;;;;;5030517;28;20125;-52
2023/01/18 00:03:12;;;;;;;3.17;1.98;;;20.90;28.60;;;;;;5029762;28;20040;-52
2023/01/18 00:05:40;;;;;;;2.97;2.00;;;20.80;28.50;;;;;;5030549;28;20473;-53
2023/01/18 00:08:16;;;;;;;3.70;2.00;;;20.80;28.50;;;;;;5024422;28;20381;-52
2023/01/18 00:10:42;;;;;;;3.22;2.08;;;20.80;28.50;;;;;;5033506;28;20048;-53
2023/01/18 00:13:09;;;;;;;2.55;1.98;;;20.80;28.50;;;;;;5035862;28;20091;-50
2023/01/18 00:15:36;;;;;;;2.88;2.03;;;20.80;29.00;;;;;;5035741;28;20053;-50
2023/01/18 00:18:02;;;;;;;3.20;1.95;;;20.80;28.60;;;;;;5034922;28;20445;-51
2023/01/18 00:20:30;;;;;;;3.72;2.17;;;20.80;28.60;;;;;;5034904;28;20054;-51
2023/01/18 00:22:58;;;;;;;2.97;2.10;;;20.80;28.50;;;;;;5035105;28;20025;-54
2023/01/18 00:25:24;;;;;;;3.97;2.45;;;20.80;28.60;;;;;;5034736;28;20029;-52
2023/01/18 00:27:52;;;;;;;3.67;2.50;;;20.80;28.60;;;;;;5035201;28;20067;-51
2023/01/18 00:30:20;;;;;;;4.28;2.13;;;20.70;28.50;;;;;;5024138;28;20132;-53
2023/01/18 00:32:53;;;;;;;3.45;2.13;;;20.80;28.60;;;;;;5034845;28;20083;-52
2023/01/18 00:35:20;;;;;;;3.72;2.17;;;20.70;28.60;;;;;;5032542;28;20104;-51
2023/01/18 00:37:47;;;;;;;4.03;2.70;;;20.70;28.60;;;;;;5034704;28;20029;-51
2023/01/18 00:40:14;;;;;;;4.88;2.60;;;20.70;28.60;;;;;;5031140;28;20086;-51
2023/01/18 00:45:25;;;;;;;4.18;2.42;;;20.70;28.60;;;;;;5024693;28;20021;-53
2023/01/18 00:47:51;;;;;;;3.88;2.42;;;20.70;28.60;;;;;;5028287;28;20022;-52
2023/01/18 00:50:19;;;;;;;3.38;2.22;;;20.60;28.60;;;;;;5018399;28;20048;-48
2023/01/18 00:52:46;;;;;;;3.47;2.17;;;20.60;28.60;;;;;;5024767;28;20048;-54
2023/01/18 00:55:14;;;;;;;3.60;2.30;;;20.60;28.60;;;;;;5023399;28;20037;-51
2023/01/18 00:57:40;;;;;;;3.47;2.25;;;20.60;28.60;;;;;;5023110;28;20091;-51
2023/01/18 01:00:10;;;;;;;4.47;2.55;;;20.60;28.60;;;;;;5017621;28;20038;-54
2023/01/18 01:02:40;;;;;;;5.28;2.85;;;20.60;28.60;;;;;;5024663;28;20033;-52
2023/01/18 01:08:02;;;;;;;4.40;2.67;;;20.60;28.60;;;;;;5018401;28;20106;-53
2023/01/18 01:10:27;;;;;;;3.25;2.20;;;20.50;28.60;;;;;;5024147;28;20045;-53
2023/01/18 01:26:36;;;;;;;4.00;2.72;;;20.50;28.60;;;;;;5016850;28;20030;-53
2023/01/18 01:29:01;;;;;;;3.42;2.30;;;20.50;28.60;;;;;;5026569;28;20048;-50
2023/01/18 01:31:27;;;;;;;2.78;2.00;;;20.40;28.60;;;;;;5021306;28;20113;-50
2023/01/18 01:33:53;;;;;;;4.30;2.58;;;20.40;28.60;;;;;;5030917;28;20101;-52
2023/01/18 01:36:24;;;;;;;2.92;2.10;;;20.40;28.60;;;;;;5023531;28;20025;-53
2023/01/18 01:38:51;;;;;;;6.53;2.40;;;20.50;28.60;;;;;;5024755;28;20429;-53
2023/01/18 01:41:26;;;;;;;4.60;2.60;;;20.40;28.60;;;;;;5021387;28;20392;-52
2023/01/18 01:43:53;;;;;;;3.33;2.47;;;20.40;28.60;;;;;;5026137;28;20067;-53
2023/01/18 01:46:46;;;;;;;3.53;2.20;;;20.40;28.60;;;;;;5025550;28;20026;-54
2023/01/18 01:49:23;;;;;;;4.05;2.50;;;20.40;28.60;;;;;;5023451;28;20074;-53
2023/01/18 01:52:03;;;;;;;3.58;2.67;;;20.40;28.60;;;;;;5026686;28;20025;-53
2023/01/18 01:54:40;;;;;;;3.17;2.10;;;20.40;28.60;;;;;;5029352;28;20045;-54
2023/01/18 01:57:12;;;;;;;3.42;2.20;;;20.40;28.60;;;;;;5025460;28;20021;-51
2023/01/18 01:59:50;;;;;;;3.67;2.53;;;20.40;28.60;;;;;;5021028;28;20381;-53
2023/01/18 02:02:15;;;;;;;5.53;2.60;;;20.40;28.60;;;;;;5014686;28;20115;-53
2023/01/18 02:04:45;;;;;;;3.50;2.35;;;20.30;28.60;;;;;;5029082;28;20179;-54
2023/01/18 02:07:11;;;;;;;4.60;2.33;;;20.30;28.60;;;;;;5029524;28;20063;-53
2023/01/18 02:09:38;;;;;;;5.95;2.70;;;20.30;28.60;;;;;;5032937;28;20037;-50
2023/01/18 02:12:04;;;;;;;4.45;2.78;;;20.30;28.60;;;;;;5033024;28;20021;-52
2023/01/18 02:14:31;;;;;;;4.72;2.42;;;20.30;28.60;;;;;;5033146;28;20045;-50
2023/01/18 02:17:27;;;;;;;4.15;2.90;;;20.30;28.60;;;;;;5032731;28;20099;-53
2023/01/18 02:20:30;;;;;;;4.30;2.60;;;20.30;28.60;;;;;;5032397;28;20041;-53
2023/01/18 02:23:15;;;;;;;3.88;2.25;;;20.30;28.60;;;;;;5032403;28;20021;-55
2023/01/18 02:26:05;;;;;;;3.75;2.60;;;20.20;28.60;;;;;;5032478;28;20037;-54
2023/01/18 02:28:40;;;;;;;3.35;2.30;;;20.20;28.60;;;;;;5031186;28;20034;-51
2023/01/18 02:31:16;;;;;;;4.10;2.50;;;20.20;28.60;;;;;;5032688;28;20051;-53
2023/01/18 02:34:02;;;;;;;3.92;2.25;;;20.20;28.60;;;;;;5032371;28;20120;-50
2023/01/18 02:36:48;;;;;;;4.25;2.70;;;20.20;28.60;;;;;;5031766;28;20409;-52
2023/01/18 02:39:45;;;;;;;4.40;2.60;;;20.20;28.60;;;;;;5027657;28;20361;-53
2023/01/18 02:48:13;;;;;;;3.22;2.33;;;20.20;28.60;;;;;;5024074;28;20026;-55
2023/01/18 02:50:40;;;;;;;4.05;2.72;;;20.10;29.10;;;;;;5024498;28;20103;-55
2023/01/18 02:53:11;;;;;;;3.35;2.42;;;20.10;28.70;;;;;;5029114;28;20120;-54
2023/01/18 02:56:14;;;;;;;4.38;2.70;;;20.10;28.60;;;;;;5023364;28;20053;-52
2023/01/18 02:58:58;;;;;;;3.33;2.42;;;20.10;28.60;;;;;;5020913;28;20022;-52
2023/01/18 03:01:43;;;;;;;3.67;2.20;;;20.10;28.70;;;;;;5020320;28;20036;-54
2023/01/18 03:04:34;;;;;;;3.05;2.60;;;20.10;28.60;;;;;;5030408;28;20029;-53
2023/01/18 03:07:12;;;;;;;3.97;2.42;;;20.10;28.70;;;;;;5027329;28;20029;-50
2023/01/18 03:09:40;;;;;;;3.67;2.50;;;20.10;28.70;;;;;;5024195;28;20110;-51
2023/01/18 03:12:45;;;;;;;3.70;2.30;;;20.10;28.70;;;;;;5020986;28;20034;-52
2023/01/18 03:15:19;;;;;;;4.32;2.80;;;20.10;28.70;;;;;;5024549;28;20038;-52
2023/01/18 03:18:10;;;;;;;4.68;2.38;;;20.10;29.20;;;;;;5019675;28;20036;-53
2023/01/18 03:20:45;;;;;;;3.10;2.22;;;20.00;28.70;;;;;;5027455;28;20472;-54
2023/01/18 03:26:05;;;;;;;4.80;2.58;;;20.00;28.70;;;;;;5025682;28;20029;-52
2023/01/18 03:34:37;;;;;;;2.80;2.00;;;20.00;28.70;;;;;;5036135;28;20448;-50
2023/01/18 03:37:10;;;;;;;3.78;2.70;;;20.00;28.70;;;;;;5024529;28;20409;-51
2023/01/18 03:39:46;;;;;;;3.85;2.25;;;20.00;28.70;;;;;;5029733;28;20037;-53
2023/01/18 03:42:20;;;;;;;4.15;2.95;;;19.90;28.70;;;;;;5024546;28;20044;-52
2023/01/18 03:44:49;;;;;;;3.50;2.38;;;20.00;28.70;;;;;;5022245;28;20053;-48
2023/01/18 03:47:16;;;;;;;4.45;3.15;;;19.90;28.70;;;;;;5008488;28;20032;-49
2023/01/18 03:49:42;;;;;;;4.15;2.53;;;19.90;28.70;;;;;;5025375;28;20033;-48
2023/01/18 03:52:25;;;;;;;3.25;2.30;;;19.90;28.70;;;;;;5023468;28;20045;-49
2023/01/18 03:55:03;;;;;;;4.85;2.35;;;19.90;28.70;;;;;;5024756;28;20045;-49
2023/01/18 03:57:54;;;;;;;3.22;2.00;;;19.90;28.70;;;;;;5021216;28;20163;-53
2023/01/18 04:00:20;;;;;;;3.20;2.50;;;19.90;28.70;;;;;;5025573;28;20040;-48
2023/01/18 04:02:48;;;;;;;3.55;2.28;;;19.90;28.70;;;;;;5024698;28;20026;-50
2023/01/18 04:05:14;;;;;;;3.38;2.28;;;19.90;28.70;;;;;;5040242;28;20040;-47
2023/01/18 04:07:40;;;;;;;5.10;2.45;;;19.90;28.70;;;;;;5041486;28;20025;-48
2023/01/18 04:10:07;;;;;;;3.88;2.40;;;19.90;28.70;;;;;;5037533;28;20326;-47
2023/01/18 04:12:33;;;;;;;3.00;2.10;;;19.90;28.70;;;;;;5037337;28;20036;-49
2023/01/18 04:15:00;;;;;;;3.08;2.17;;;19.90;28.70;;;;;;5036890;28;20108;-51
2023/01/18 04:17:26;;;;;;;4.13;2.50;;;19.90;28.70;;;;;;5036498;28;20402;-50
2023/01/18 04:19:52;;;;;;;4.25;2.40;;;19.90;28.70;;;;;;5035657;28;20061;-49
2023/01/18 04:22:18;;;;;;;4.05;2.58;;;19.80;28.70;;;;;;5031412;28;20044;-52
2023/01/18 04:24:44;;;;;;;3.67;2.20;;;19.80;28.70;;;;;;5057215;28;20087;-54
2023/01/18 04:27:11;;;;;;;4.95;2.65;;;19.80;28.70;;;;;;5052569;28;20383;-47
2023/01/18 04:29:37;;;;;;;3.83;2.50;;;19.80;28.70;;;;;;5036608;28;20121;-49
2023/01/18 04:32:04;;;;;;;3.45;2.17;;;19.80;28.70;;;;;;5036848;28;20033;-48
2023/01/18 04:34:31;;;;;;;3.22;2.28;;;19.80;28.70;;;;;;5035646;28;20083;-48
2023/01/18 04:36:57;;;;;;;4.15;2.38;;;19.80;28.70;;;;;;5037011;28;20349;-52
2023/01/18 04:39:23;;;;;;;3.13;1.88;;;19.80;28.70;;;;;;5039452;28;20115;-50
2023/01/18 04:41:49;;;;;;;5.05;2.28;;;19.80;28.70;;;;;;5054908;28;20401;-52
2023/01/18 04:44:15;;;;;;;3.80;2.10;;;19.70;28.70;;;;;;5036870;28;20129;-48
2023/01/18 04:46:42;;;;;;;3.17;2.20;;;19.80;28.70;;;;;;5035219;28;20082;-52
2023/01/18 04:49:12;;;;;;;2.78;1.88;;;19.80;28.80;;;;;;5035621;28;20056;-54
2023/01/18 04:51:38;;;;;;;3.10;2.30;;;19.70;28.70;;;;;;5036227;28;20421;-48
2023/01/18 04:54:04;;;;;;;4.35;2.50;;;19.80;28.70;;;;;;5036740;28;20037;-47
2023/01/18 04:56:30;;;;;;;4.80;2.50;;;19.80;28.70;;;;;;5040657;28;20025;-47
2023/01/18 04:58:56;;;;;;;4.57;2.45;;;19.80;28.80;;;;;;5046873;28;20092;-48
2023/01/18 05:01:22;;;;;;;3.33;2.17;;;19.70;28.70;;;;;;5036592;28;20044;-48
2023/01/18 05:03:48;;;;;;;2.83;2.15;;;19.70;28.80;;;;;;5034927;28;20037;-50
2023/01/18 05:06:15;;;;;;;3.72;2.13;;;19.70;28.80;;;;;;5032271;28;20025;-47
2023/01/18 05:08:41;;;;;;;3.70;2.25;;;19.70;29.00;;;;;;5024270;28;20048;-46
2023/01/18 05:11:13;;;;;;;4.38;2.45;;;19.70;29.00;;;;;;5020846;28;20041;-50
2023/01/18 05:13:42;;;;;;;4.63;2.40;;;19.70;28.90;;;;;;5025560;28;20030;-52
2023/01/18 05:16:15;;;;;;;4.32;2.20;;;19.70;28.90;;;;;;5021915;28;20040;-52
2023/01/18 05:18:42;;;;;;;4.15;2.30;;;19.70;28.90;;;;;;5022282;28;20370;-54
2023/01/18 05:21:08;;;;;;;3.65;2.25;;;19.60;28.80;;;;;;5022785;28;20034;-52
2023/01/18 05:23:34;;;;;;;5.22;2.25;;;19.60;28.80;;;;;;5027839;28;20033;-51
2023/01/18 05:26:00;;;;;;;3.88;2.38;;;19.60;28.80;;;;;;5023597;28;20382;-48
2023/01/18 05:28:27;;;;;;;2.97;1.90;;;19.70;28.90;;;;;;5026763;28;20029;-49
2023/01/18 05:30:53;;;;;;;4.13;2.75;;;19.60;28.80;;;;;;5024375;28;20036;-50
2023/01/18 05:33:21;;;;;;;3.53;2.38;;;19.60;28.80;;;;;;5033176;28;20108;-50
2023/01/18 05:35:51;;;;;;;2.97;2.00;;;19.60;28.90;;;;;;5024032;28;20867;-48
2023/01/18 05:38:18;;;;;;;3.58;2.10;;;19.60;28.90;;;;;;5021506;28;20100;-51
2023/01/18 05:40:45;;;;;;;3.05;2.17;;;19.60;28.90;;;;;;5024083;28;20029;-50
2023/01/18 05:43:11;;;;;;;4.32;2.05;;;19.60;28.90;;;;;;5012699;28;20029;-49
2023/01/18 05:45:37;;;;;;;3.40;2.20;;;19.60;28.90;;;;;;5020113;28;20025;-47
2023/01/18 05:48:03;;;;;;;3.35;1.70;;;19.60;28.90;;;;;;5022431;28;20100;-51
2023/01/18 05:50:29;;;;;;;2.67;1.88;;;19.50;28.90;;;;;;5024386;28;20037;-49
2023/01/18 05:52:58;;;;;;;3.40;2.13;;;19.60;28.90;;;;;;5023205;28;20174;-51
2023/01/18 05:55:26;;;;;;;3.90;2.35;;;19.50;28.90;;;;;;5023849;28;20088;-48
2023/01/18 05:57:52;;;;;;;2.97;2.00;;;19.60;28.90;;;;;;5006839;28;20071;-49
2023/01/18 06:00:18;;;;;;;3.88;2.20;;;19.50;28.90;;;;;;5021404;28;20025;-49
2023/01/18 06:02:44;;;;;;;2.30;1.92;;;19.50;28.90;;;;;;5030693;28;20025;-53
2023/01/18 06:05:10;;;;;;;3.72;2.05;;;19.50;28.90;;;;;;5026644;28;20124;-49
2023/01/18 06:07:36;;;;;;;2.78;1.88;;;19.50;28.90;;;;;;5035130;28;20121;-53
2023/01/18 06:10:03;;;;;;;2.80;1.80;;;19.50;28.90;;;;;;5034752;28;20500;-54
2023/01/18 06:12:29;;;;;;;3.08;2.10;;;19.50;28.90;;;;;;5034996;28;20037;-54
2023/01/18 06:14:55;;;;;;;3.67;2.22;;;19.50;29.00;;;;;;5034815;28;20360;-47
2023/01/18 06:17:21;;;;;;;4.47;2.30;;;19.50;29.00;;;;;;5017177;28;20083;-49
2023/01/18 06:19:47;;;;;;;3.53;2.20;;;19.40;29.00;;;;;;5017421;28;20061;-54
2023/01/18 06:22:14;;;;;;;3.45;2.15;;;19.50;29.00;;;;;;5035659;28;20025;-53
2023/01/18 06:24:40;;;;;;;2.85;2.05;;;19.50;29.10;;;;;;5034853;28;20033;-50
2023/01/18 06:27:06;;;;;;;2.67;2.00;;;19.40;29.00;;;;;;5037774;28;20026;-54
2023/01/18 06:29:32;;;;;;;3.78;2.40;;;19.40;29.00;;;;;;5034655;28;20111;-54
2023/01/18 06:31:58;;;;;;;2.85;2.15;;;19.40;29.00;;;;;;5033531;28;20026;-53
2023/01/18 06:34:25;;;;;;;3.25;2.30;;;19.40;29.00;;;;;;5034524;28;20052;-53
2023/01/18 06:36:50;;;;;;;3.80;2.15;;;19.40;29.00;;;;;;5034678;28;20025;-53
2023/01/18 06:39:16;;;;;;;3.08;1.73;;;19.40;29.00;;;;;;5020305;28;20470;-52
2023/01/18 06:41:42;;;;;;;3.13;2.10;;;19.40;29.00;;;;;;5020237;28;20112;-48
2023/01/18 06:44:08;;;;;;;2.75;1.92;;;19.40;29.00;;;;;;5025308;28;20076;-47
2023/01/18 06:46:34;;;;;;;3.30;2.08;;;19.40;29.00;;;;;;5020696;28;20057;-52
2023/01/18 06:49:00;;;;;;;3.63;2.30;;;19.40;29.00;;;;;;5008021;28;20033;-53
2023/01/18 06:51:26;;;;;;;3.45;2.00;;;19.40;29.00;;;;;;5017738;28;20366;-50
2023/01/18 06:53:52;;;;;;;3.50;1.92;;;19.30;29.00;;;;;;5019784;28;20022;-50
2023/01/18 06:56:17;;;;;;;2.88;1.90;;;19.30;29.00;;;;;;5029975;28;20119;-52
2023/01/18 06:58:43;;;;;;;2.75;1.80;;;19.30;29.00;;;;;;5022037;28;20029;-51
2023/01/18 07:01:10;;;;;;;2.67;1.73;;;19.40;29.00;;;;;;5027815;28;20116;-53
2023/01/18 07:03:37;;;;;;;3.03;2.05;;;19.30;29.00;;;;;;5030022;28;20041;-50
2023/01/18 07:06:05;;;;;;;4.47;1.80;;;19.30;29.00;;;;;;5038163;28;20037;-49
2023/01/18 07:08:31;;;;;;;4.60;2.45;;;19.30;29.00;;;;;;5025555;28;20037;-54
2023/01/18 07:10:58;;;;;;;3.42;2.20;;;19.30;29.00;;;;;;5023343;28;20044;-53
2023/01/18 07:13:24;;;;;;;3.45;2.30;;;19.30;29.00;;;;;;5032470;28;20057;-48
2023/01/18 07:16:00;;;;;;;3.45;2.25;;;19.30;29.10;;;;;;5021963;28;20033;-51
2023/01/18 07:18:28;;;;;;;3.88;2.20;;;19.30;29.10;;;;;;5026429;28;20037;-55
2023/01/18 07:21:01;;;;;;;3.78;2.22;;;19.30;29.10;;;;;;5025311;28;20048;-51
2023/01/18 07:23:28;;;;;;;3.10;1.80;;;19.30;29.10;;;;;;5029939;28;20481;-49
2023/01/18 07:26:05;;;;;;;4.60;2.50;;;19.30;29.10;;;;;;5020890;28;20457;-48
2023/01/18 07:28:32;;;;;;;3.05;2.00;;;19.30;29.10;;;;;;5028581;28;20124;-53
2023/01/18 07:30:58;;;;;;;3.15;2.35;;;19.20;29.00;;;;;;5034405;28;20045;-53
2023/01/18 07:33:24;;;;;;;2.75;1.92;;;19.30;29.10;;;;;;5029815;28;20022;-50
2023/01/18 07:35:57;;;;;;;2.92;2.13;;;19.20;29.00;;;;;;5004122;28;20042;-53
2023/01/18 07:38:23;;;;;;;3.05;1.95;;;19.20;29.00;;;;;;5023094;28;20022;-55
2023/01/18 07:40:49;;;;;;;3.42;2.10;;;19.20;29.00;;;;;;5008022;28;20104;-50
2023/01/18 07:43:17;;;;;;;3.20;2.08;;;19.20;29.00;;;;;;5026841;28;20108;-48
2023/01/18 07:45:43;;;;;;;3.42;2.20;;;19.20;29.10;;;;;;5006515;28;20026;-54
2023/01/18 07:48:09;;;;;;;3.00;2.25;;;19.20;29.10;;;;;;5024013;28;20326;-50
2023/01/18 07:50:35;;;;;;;3.38;2.10;;;19.20;29.20;;;;;;5029241;28;20737;-59
2023/01/18 07:53:07;;;;;;;3.15;2.13;;;19.20;29.30;;;;;;5025681;28;20049;-52
2023/01/18 07:55:33;;;;;;;3.28;2.17;;;19.20;29.30;;;;;;5022106;28;20178;-54
2023/01/18 07:58:00;;;;;;;3.17;1.92;;;19.20;29.50;;;;;;5020761;28;20052;-54
2023/01/18 08:00:27;;;;;;;4.15;2.20;;;19.20;29.60;;;;;;5012818;28;20112;-51
2023/01/18 08:02:54;;;;;;;3.30;1.75;;;19.20;29.80;;;;;;5010802;28;20404;-49
2023/01/18 08:05:22;;;;;;;22.23;2.92;;;19.20;29.90;;;;;;5025760;28;20017;-51
2023/01/18 08:07:52;;;;;;;3.55;1.88;;;19.20;30.00;;;;;;5025026;28;20427;-51
2023/01/18 08:10:19;;;;;;;2.63;1.63;;;19.20;30.00;;;;;;5025483;28;20409;-48
2023/01/18 08:12:45;;;;;;;3.00;1.85;;;19.30;30.20;;;;;;5013629;28;20468;-52
2023/01/18 08:15:12;;;;;;;3.08;1.60;;;19.40;30.40;;;;;;5023638;28;20081;-52
2023/01/18 08:17:38;;;;;;;2.53;1.70;;;19.40;30.40;;;;;;5027746;28;20091;-52
2023/01/18 08:20:05;;;;;;;4.25;1.90;;;19.40;30.50;;;;;;5032906;28;20120;-52
2023/01/18 08:22:31;;;;;;;3.03;2.03;;;19.50;30.50;;;;;;5034505;28;20079;-51
2023/01/18 08:24:57;;;;;;;3.70;1.85;;;19.60;30.50;;;;;;5035150;28;20104;-52
2023/01/18 08:27:23;;;;;;;3.17;1.98;;;19.60;30.50;;;;;;5034134;28;20108;-50
2023/01/18 08:29:49;;;;;;;3.38;1.80;;;19.70;30.60;;;;;;5026872;28;20041;-50
2023/01/18 08:32:15;;;;;;;2.97;1.88;;;19.70;30.50;;;;;;5024856;28;20414;-52
2023/01/18 08:34:41;;;;;;;3.33;1.63;;;19.80;30.50;;;;;;5031063;28;20069;-50
2023/01/18 08:37:06;;;;;;;2.28;1.63;;;19.90;30.50;;;;;;5021306;28;20068;-50
2023/01/18 08:39:32;;;;;;;2.80;2.05;;;19.90;30.40;;;;;;5024150;28;20036;-48
2023/01/18 08:41:58;;;;;;;3.53;1.92;;;20.00;30.40;;;;;;5021752;28;20420;-52
2023/01/18 08:44:24;;;;;;;3.40;2.15;;;20.00;30.30;;;;;;5024087;28;20117;-53
2023/01/18 08:46:50;;;;;;;3.40;1.70;;;20.10;30.20;;;;;;5026256;28;20029;-59
2023/01/18 08:49:16;;;;;;;3.45;2.10;;;20.10;30.10;;;;;;5024271;28;20453;-52
2023/01/18 08:51:42;;;;;;;4.55;2.42;;;20.20;30.10;;;;;;5005741;28;20045;-51
2023/01/18 08:54:07;;;;;;;2.60;2.03;;;20.20;30.10;;;;;;5016125;28;20030;-54
2023/01/18 08:56:33;;;;;;;3.22;1.98;;;20.30;30.00;;;;;;5017763;28;20452;-53
2023/01/18 08:58:59;;;;;;;3.55;2.10;;;20.30;29.90;;;;;;5028681;28;20412;-52
2023/01/18 09:01:25;;;;;;;3.50;2.60;;;20.40;29.80;;;;;;5014445;28;20045;-49
2023/01/18 09:03:57;;;;;;;3.58;2.30;;;20.40;29.80;;;;;;5034074;28;20084;-52
2023/01/18 09:06:23;;;;;;;4.13;2.20;;;20.50;29.70;;;;;;5019259;28;20048;-53
2023/01/18 09:08:49;;;;;;;3.25;2.20;;;20.50;29.60;;;;;;5035571;28;20061;-51
2023/01/18 09:11:16;;;;;;;3.22;1.98;;;20.60;29.50;;;;;;5036005;28;20044;-51
2023/01/18 09:13:42;;;;;;;4.75;2.15;;;20.60;29.40;;;;;;5035988;28;20022;-55
2023/01/18 09:16:09;;;;;;;3.28;2.20;;;20.70;29.30;;;;;;5036126;28;20037;-51
2023/01/18 09:18:36;;;;;;;3.88;2.38;;;20.80;29.30;;;;;;5035206;28;20071;-48
2023/01/18 09:21:10;;;;;;;4.05;2.40;;;20.80;29.20;;;;;;5036011;28;20122;-51
2023/01/18 09:23:38;;;;;;;3.08;2.13;;;20.80;29.10;;;;;;5031946;28;20036;-53
2023/01/18 09:26:15;;;;;;;3.90;2.30;;;20.90;29.00;;;;;;5035766;28;20033;-52
2023/01/18 09:28:43;;;;;;;4.18;2.70;;;20.90;28.90;;;;;;5035663;28;20025;-53
2023/01/18 09:31:11;;;;;;;5.30;2.83;;;20.90;28.90;;;;;;5035130;28;20044;-55
2023/01/18 09:33:38;;;;;;;4.28;2.33;;;21.00;28.90;;;;;;5020597;28;20064;-55
2023/01/18 09:36:08;;;;;;;3.38;2.30;;;21.00;28.80;;;;;;5035695;28;20049;-52
2023/01/18 09:38:35;;;;;;;3.88;2.22;;;21.00;28.70;;;;;;5035826;28;20099;-51
2023/01/18 09:41:04;;;;;;;4.72;2.53;;;21.10;28.70;;;;;;5035327;28;20061;-54
2023/01/18 09:43:39;;;;;;;4.00;2.28;;;21.10;28.70;;;;;;5033957;28;20312;-54
2023/01/18 09:46:20;;;;;;;4.05;2.28;;;21.10;28.60;;;;;;5034798;28;20029;-53
2023/01/18 09:48:54;;;;;;;3.58;2.53;;;21.10;28.60;;;;;;5034922;28;20048;-52
2023/01/18 09:51:31;;;;;;;;;;;21.20;28.60;;;;;;5024242;28;20041;-49
2023/01/18 09:54:41;;;;;;;4.82;2.45;;;21.20;28.60;;;;;;5031516;28;19988;-53
2023/01/18 09:57:32;;;;;;;3.53;2.38;;;21.20;28.60;;;;;;5002817;28;20087;-53
2023/01/18 10:00:03;;;;;;;4.07;2.53;;;21.20;28.60;;;;;;5023777;28;20026;-50
2023/01/18 10:02:37;;;;;;;3.13;2.22;;;21.20;28.60;;;;;;5026595;28;20025;-52
2023/01/18 10:05:20;;;;;;;3.85;2.40;;;21.20;28.60;;;;;;5031230;28;20026;-50
2023/01/18 10:08:01;;;;;;;4.30;2.47;;;21.20;28.60;;;;;;5018474;28;20064;-52
2023/01/18 10:10:35;;;;;;;4.50;2.78;;;21.20;28.60;;;;;;5031273;28;20468;-53
2023/01/18 10:13:20;;;;;;;;;;;21.20;28.60;;;;;;5022744;28;20049;-55
2023/01/18 10:15:48;;;;;;;3.17;2.33;;;21.20;28.60;;;;;;5032947;28;19928;-52
2023/01/18 10:18:17;;;;;;;4.70;2.47;;;21.20;28.60;;;;;;5030847;28;20272;-52
2023/01/18 10:20:52;;;;;;;3.85;2.35;;;21.20;28.60;;;;;;5033460;28;20106;-52
2023/01/18 10:23:30;;;;;;;3.95;2.35;;;21.10;28.50;;;;;;5031421;28;20025;-53
2023/01/18 10:26:02;;;;;;;3.15;2.13;;;21.20;28.60;;;;;;5033166;28;20029;-51
2023/01/18 10:28:59;;;;;;;3.17;2.00;;;21.20;28.60;;;;;;5033008;28;20041;-53
2023/01/18 10:31:54;;;;;;;3.72;2.22;;;21.10;28.50;;;;;;5028162;28;20449;-50
2023/01/18 10:34:21;;;;;;;;;;;21.10;28.50;;;;;;5007350;28;20021;-51
2023/01/18 10:36:54;;;;;;;4.20;2.85;;;21.10;28.50;;;;;;5033480;28;20007;-50
2023/01/18 10:39:34;;;;;;;3.63;2.28;;;21.10;28.50;;;;;;5032736;28;20041;-48
2023/01/18 10:42:03;;;;;;;5.65;2.53;;;21.10;28.50;;;;;;5032740;28;20029;-51
2023/01/18 10:44:30;;;;;;;3.63;2.15;;;21.10;28.50;;;;;;5021441;28;20449;-51
2023/01/18 10:47:00;;;;;;;3.53;2.45;;;21.10;28.50;;;;;;5032085;28;20356;-51
2023/01/18 10:49:40;;;;;;;4.03;2.50;;;21.10;28.50;;;;;;5033075;28;20498;-50
2023/01/18 10:52:25;;;;;;;3.40;2.22;;;21.10;28.50;;;;;;5031054;28;20026;-58
2023/01/18 10:54:54;;;;;;;4.22;2.25;;;21.10;28.50;;;;;;5025016;28;20037;-52
2023/01/18 10:57:30;;;;;;;3.70;2.10;;;21.10;28.60;;;;;;5024931;28;20081;-53
2023/01/18 10:59:58;;;;;;;4.57;1.75;;;21.00;28.70;;;;;;5025718;28;20013;-52
2023/01/18 11:02:33;;;;;;;4.75;2.10;;;21.00;29.00;;;;;;5028649;28;20028;-53
2023/01/18 11:05:20;;;;;;;2.95;1.73;;;21.00;29.20;;;;;;5028502;28;20117;-49
2023/01/18 11:07:47;;;;;;;4.30;2.35;;;21.00;29.20;;;;;;5023628;28;20088;-52
2023/01/18 11:10:27;;;;;;;3.55;1.70;;;21.00;29.30;;;;;;5027319;28;20037;-52
2023/01/18 11:12:53;;;;;;;3.75;1.75;;;21.00;29.40;;;;;;5026050;28;20352;-49
2023/01/18 11:15:28;;;;;;;2.67;1.70;;;21.10;29.50;;;;;;5026438;28;20030;-49
2023/01/18 11:17:56;;;;;;;4.28;1.83;;;21.00;29.50;;;;;;5027787;28;20041;-50
2023/01/18 11:20:45;;;;;;;2.47;1.70;;;21.10;29.60;;;;;;5030416;28;20049;-48
2023/01/18 11:23:48;;;;;;;3.67;1.88;;;21.10;29.70;;;;;;5031933;28;20172;-50
2023/01/18 11:26:20;;;;;;;2.13;1.60;;;21.10;29.70;;;;;;4959435;28;20185;-51
2023/01/18 11:28:53;;;;;;;2.95;1.95;;;21.10;29.80;;;;;;5023110;28;20045;-48
2023/01/18 11:31:21;;;;;;;2.40;1.75;;;21.10;29.90;;;;;;5032477;28;20338;-50
2023/01/18 11:33:59;;;;;;;3.38;1.70;;;21.10;29.90;;;;;;5022894;28;20025;-47
2023/01/18 11:36:36;;;;;;;2.67;1.60;;;21.10;30.00;;;;;;5031747;28;20111;-48
2023/01/18 11:39:26;;;;;;;2.58;1.60;;;21.10;30.00;;;;;;5030800;28;20029;-51
2023/01/18 11:42:28;;;;;;;4.22;1.70;;;21.10;30.00;;;;;;5030032;28;20034;-48
2023/01/18 11:45:16;;;;;;;3.83;1.80;;;21.10;30.00;;;;;;5035995;28;20083;-48
2023/01/18 11:47:56;;;;;;;3.65;2.00;;;21.10;30.10;;;;;;5034823;28;20041;-49
2023/01/18 11:50:43;;;;;;;3.25;1.58;;;21.10;30.10;;;;;;5033704;28;20045;-51
2023/01/18 11:53:21;;;;;;;3.72;1.60;;;21.10;30.10;;;;;;5033771;28;20021;-50
2023/01/18 11:56:12;;;;;;;2.25;1.52;;;21.00;30.10;;;;;;5021903;28;20033;-53
2023/01/18 11:58:39;;;;;;;4.30;1.70;;;21.00;30.00;;;;;;5018593;28;20044;-50
2023/01/18 12:01:44;;;;;;;4.95;1.55;;;21.10;30.60;;;;;;5023031;28;20970;-52
2023/01/18 12:04:13;;;;;;;3.30;1.67;;;21.10;30.00;;;;;;4956203;28;20031;-49
2023/01/18 12:06:42;;;;;;;3.28;1.60;;;21.00;29.80;;;;;;5017584;28;20042;-51
2023/01/18 12:09:21;;;;;;;3.78;1.58;;;21.10;29.80;;;;;;5025864;28;20036;-53
2023/01/18 12:12:12;;;;;;;2.80;1.75;;;21.10;29.80;;;;;;5023980;28;20064;-52
2023/01/18 12:14:57;;;;;;;3.53;1.67;;;21.00;29.70;;;;;;5028846;28;20043;-53
2023/01/18 12:17:47;;;;;;;2.75;1.77;;;21.00;29.70;;;;;;5024487;28;20049;-49
2023/01/18 12:20:28;;;;;;;2.40;1.40;;;21.00;29.70;;;;;;5023257;28;20045;-54
2023/01/18 12:23:02;;;;;;;4.63;1.98;;;21.00;29.70;;;;;;5022577;28;20034;-53
2023/01/18 12:26:05;;;;;;;2.35;1.50;;;21.00;29.70;;;;;;5027669;28;20168;-54
2023/01/18 12:28:52;;;;;;;3.28;2.17;;;21.00;29.60;;;;;;5005455;28;20041;-51
2023/01/18 12:31:24;;;;;;;2.47;1.60;;;21.00;29.60;;;;;;5027324;28;20033;-52
2023/01/18 12:34:29;;;;;;;3.17;1.90;;;21.00;29.60;;;;;;5028239;28;20025;-51
2023/01/18 12:37:22;;;;;;;1.90;1.42;;;21.00;30.00;;;;;;4997240;28;20049;-51
2023/01/18 12:40:19;;;;;;;2.55;1.70;;;21.00;29.60;;;;;;5031287;28;20033;-53
2023/01/18 12:43:07;;;;;;;2.88;1.70;;;21.00;29.60;;;;;;5023763;28;20045;-50
2023/01/18 12:45:41;;;;;;;2.33;1.67;;;21.00;29.50;;;;;;5028424;28;20033;-51
2023/01/18 12:48:12;;;;;;;2.88;1.48;;;21.00;29.60;;;;;;5016730;28;20113;-49
2023/01/18 12:50:39;;;;;;;2.00;1.50;;;21.00;29.60;;;;;;5020234;28;21457;-48
2023/01/18 12:53:13;;;;;;;3.55;1.80;;;20.90;29.50;;;;;;5007240;28;20403;-50
2023/01/18 12:56:01;;;;;;;1.95;1.33;;;20.90;29.50;;;;;;5023926;28;20068;-52
2023/01/18 12:58:27;;;;;;;1.85;1.30;;;21.00;29.60;;;;;;5030761;28;20036;-48
2023/01/18 13:00:57;;;;;;;2.78;1.50;;;20.90;29.50;;;;;;5029076;28;20344;-47
2023/01/18 13:03:44;;;;;;;1.92;1.30;;;20.90;29.50;;;;;;5023185;28;21220;-53
2023/01/18 13:06:11;;;;;;;2.08;1.30;;;21.00;29.60;;;;;;5021618;28;20040;-50
2023/01/18 13:08:51;;;;;;;2.10;1.33;;;20.90;29.60;;;;;;5026211;28;20088;-50
2023/01/18 13:11:21;;;;;;;2.78;1.40;;;20.90;29.60;;;;;;5027692;28;20033;-54
2023/01/18 13:13:53;;;;;;;2.92;1.40;;;20.90;29.60;;;;;;5028115;28;20030;-50
2023/01/18 13:16:39;;;;;;;2.03;1.23;;;20.90;29.60;;;;;;5028017;28;20044;-52
2023/01/18 13:19:09;;;;;;;3.15;1.30;;;20.90;29.60;;;;;;5023632;28;20100;-51
2023/01/18 13:22:05;;;;;;;2.42;1.42;;;20.90;29.60;;;;;;5023236;28;20026;-50
2023/01/18 13:24:51;;;;;;;2.08;1.25;;;20.90;29.80;;;;;;5028097;28;20393;-59
2023/01/18 13:27:17;;;;;;;1.85;1.25;;;20.90;29.90;;;;;;5046609;28;20095;-57
2023/01/18 13:29:50;;;;;;;2.00;1.20;;;20.90;29.90;;;;;;5037052;28;20025;-51
2023/01/18 13:32:36;;;;;;;1.42;1.08;;;20.90;30.00;;;;;;5035023;28;20040;-51
2023/01/18 13:35:12;;;;;;;2.42;1.33;;;20.90;30.00;;;;;;5033179;28;20040;-57
2023/01/18 13:37:44;;;;;;;2.28;1.23;;;20.90;30.00;;;;;;5031429;28;20033;-52
2023/01/18 13:40:31;;;;;;;3.15;1.30;;;20.90;30.00;;;;;;5033119;28;20037;-56
2023/01/18 13:42:58;;;;;;;2.50;1.10;;;20.90;30.00;;;;;;5032667;28;20049;-55
2023/01/18 13:45:27;;;;;;;2.80;1.20;;;20.90;30.00;;;;;;5031960;28;20029;-55
2023/01/18 13:48:16;;;;;;;2.10;1.17;;;20.90;30.00;;;;;;5032813;28;20033;-50